Time;durP1;ratioP1;P1;durP2;ratioP2;P2;SDS_P1;SDS_P2;PMS_P1;PMS_P2;Temp;Humidity;BMP_temperature;BMP_pressure;BME280_temperature;BME280_humidity;BME280_pressure;Samples;Min_cycle;Max_cycle;Signal;HPM_P1;HPM_P2
2023/12/31 00:00:35;;;;;;;1.45;0.95;;;;;;;6.08;100.00;100219.56;4915872;29;20039;-81
2023/12/31 00:03:04;;;;;;;3.95;1.52;;;;;;;6.15;100.00;100209.19;4911839;29;20074;-81
2023/12/31 00:05:31;;;;;;;1.50;1.13;;;;;;;6.23;100.00;100203.16;4913061;29;20505;-82
2023/12/31 00:07:57;;;;;;;2.67;0.77;;;;;;;6.28;100.00;100200.53;4929725;29;20047;-82
2023/12/31 00:10:24;;;;;;;2.65;1.00;;;;;;;6.30;100.00;100191.03;4930482;29;20059;-82
2023/12/31 00:12:50;;;;;;;1.48;0.77;;;;;;;6.32;100.00;100188.41;4910302;29;20047;-84
2023/12/31 00:15:17;;;;;;;3.53;1.40;;;;;;;6.31;100.00;100190.16;4913215;29;20055;-83
2023/12/31 00:17:43;;;;;;;3.70;1.17;;;;;;;6.32;100.00;100184.06;4912473;29;20059;-83
2023/12/31 00:20:10;;;;;;;4.68;1.80;;;;;;;6.32;100.00;100186.69;4915824;29;20142;-82
2023/12/31 00:22:37;;;;;;;5.20;1.20;;;;;;;6.35;100.00;100185.81;4913825;29;20466;-83
2023/12/31 00:25:07;;;;;;;6.38;1.35;;;;;;;6.39;100.00;100193.63;4924200;29;20142;-84
2023/12/31 00:27:33;;;;;;;4.78;1.15;;;;;;;6.41;100.00;100188.44;4911977;29;20484;-82
2023/12/31 00:30:00;;;;;;;3.63;0.98;;;;;;;6.44;100.00;100172.81;4907867;29;20158;-81
2023/12/31 00:32:28;;;;;;;5.78;1.10;;;;;;;6.48;100.00;100184.97;4942188;28;20564;-81
2023/12/31 00:34:55;;;;;;;2.50;1.80;;;;;;;6.51;100.00;100181.50;4910172;29;20619;-82
2023/12/31 00:37:21;;;;;;;3.17;0.75;;;;;;;6.52;100.00;100181.50;4922895;29;20058;-82
2023/12/31 00:39:49;;;;;;;1.00;0.70;;;;;;;6.52;100.00;100175.41;4926916;29;20058;-82
2023/12/31 00:42:15;;;;;;;3.83;1.08;;;;;;;6.48;100.00;100171.97;4916205;29;20044;-81
2023/12/31 00:44:42;;;;;;;7.10;1.75;;;;;;;6.45;100.00;100169.34;4912740;29;20044;-83
2023/12/31 00:47:08;;;;;;;2.90;0.95;;;;;;;6.46;100.00;100171.94;4928478;29;20519;-82
2023/12/31 00:49:35;;;;;;;4.78;1.30;;;;;;;6.46;100.00;100165.91;4908631;29;20062;-81
2023/12/31 00:52:01;;;;;;;2.50;0.85;;;;;;;6.44;100.00;100162.41;4909398;29;20032;-83
2023/12/31 00:54:28;;;;;;;7.63;1.05;;;;;;;6.46;100.00;100168.50;4915916;29;20080;-82
2023/12/31 00:56:55;;;;;;;4.68;0.98;;;;;;;6.50;100.00;100158.97;4924206;29;20091;-83
2023/12/31 00:59:21;;;;;;;2.72;1.05;;;;;;;6.49;100.00;100158.09;4913061;29;20056;-83
2023/12/31 01:01:50;;;;;;;3.80;1.05;;;;;;;6.48;100.00;100151.19;4916444;29;20459;-83
2023/12/31 01:04:17;;;;;;;2.78;0.77;;;;;;;6.54;100.00;100150.28;4915100;29;20043;-81
2023/12/31 01:06:43;;;;;;;3.10;1.25;;;;;;;6.59;100.00;100157.22;4913648;29;20141;-82
2023/12/31 01:09:10;;;;;;;8.55;1.40;;;;;;;6.66;100.00;100147.66;4929128;29;20055;-83
2023/12/31 01:11:39;;;;;;;5.28;1.35;;;;;;;6.80;100.00;100152.88;4921095;29;20044;-81
2023/12/31 01:14:06;;;;;;;3.70;1.05;;;;;;;6.90;100.00;100146.78;4912006;29;20108;-85
2023/12/31 01:16:32;;;;;;;4.50;1.23;;;;;;;6.99;100.00;100145.91;4928198;29;20263;-83
2023/12/31 01:18:59;;;;;;;5.45;1.80;;;;;;;7.04;100.00;100146.75;4927855;29;20146;-84
2023/12/31 01:21:25;;;;;;;5.18;1.45;;;;;;;7.14;100.00;100133.72;4913362;29;20143;-83
2023/12/31 01:23:52;;;;;;;4.47;1.00;;;;;;;7.23;100.00;100120.66;4925038;29;20058;-82
2023/12/31 01:26:21;;;;;;;1.98;0.77;;;;;;;7.26;100.00;100126.72;4910438;29;20504;-83
2023/12/31 01:28:48;;;;;;;2.38;0.77;;;;;;;7.30;100.00;100124.97;4910888;29;20047;-82
2023/12/31 01:31:21;;;;;;;3.85;0.85;;;;;;;7.31;100.00;100121.47;4911462;29;20473;-83
2023/12/31 01:33:48;;;;;;;3.58;1.05;;;;;;;7.29;100.00;100112.84;4910767;29;20462;-82
2023/12/31 01:36:18;;;;;;;1.35;0.90;;;;;;;7.27;100.00;100104.16;4928998;29;20106;-83
2023/12/31 01:38:45;;;;;;;4.90;2.60;;;;;;;7.13;100.00;100104.19;4910337;29;20077;-81
2023/12/31 01:41:11;;;;;;;2.53;1.10;;;;;;;7.06;100.00;100108.56;4911776;29;20056;-82
2023/12/31 01:43:38;;;;;;;6.80;1.35;;;;;;;6.97;100.00;100103.38;4909345;29;20051;-83
2023/12/31 01:46:10;;;;;;;3.42;0.90;;;;;;;6.91;100.00;100106.88;4905911;29;20086;-82
2023/12/31 01:48:40;;;;;;;9.50;1.80;;;;;;;6.84;100.00;100107.75;4925679;29;20106;-83
2023/12/31 01:51:09;;;;;;;3.35;0.90;;;;;;;6.79;100.00;100107.78;4921913;29;20527;-83
2023/12/31 01:53:36;;;;;;;2.38;0.95;;;;;;;6.77;100.00;100106.06;4940235;29;20079;-82
2023/12/31 01:56:02;;;;;;;2.30;1.25;;;;;;;6.75;100.00;100093.06;4913412;29;20048;-81
2023/12/31 01:58:29;;;;;;;4.25;2.08;;;;;;;6.70;100.00;100099.13;4936130;29;20057;-83
2023/12/31 02:00:56;;;;;;;4.43;1.55;;;;;;;6.67;100.00;100100.00;4913687;29;20054;-83
2023/12/31 02:03:25;;;;;;;5.43;1.40;;;;;;;6.63;100.00;100100.88;4922132;29;20043;-82
2023/12/31 02:05:51;;;;;;;5.05;2.63;;;;;;;6.61;100.00;100098.28;4928380;29;20059;-81
2023/12/31 02:08:18;;;;;;;4.78;1.25;;;;;;;6.58;100.00;100093.09;4927254;29;20150;-83
2023/12/31 02:10:45;;;;;;;4.05;1.60;;;;;;;6.56;100.00;100088.75;4913203;29;20417;-83
2023/12/31 02:13:11;;;;;;;4.90;1.73;;;;;;;6.56;100.00;100093.97;4910634;29;20099;-83
2023/12/31 02:15:38;;;;;;;1.58;0.93;;;;;;;6.55;100.00;100080.06;4915118;29;20059;-83
2023/12/31 02:18:05;;;;;;;5.20;1.77;;;;;;;6.54;100.00;100080.09;4917215;29;20066;-82
2023/12/31 02:20:32;;;;;;;2.50;1.60;;;;;;;6.53;100.00;100084.44;4927636;29;20051;-83
2023/12/31 02:23:01;;;;;;;8.55;1.27;;;;;;;6.54;100.00;100077.47;4913314;29;20047;-82
2023/12/31 02:25:29;;;;;;;2.42;1.63;;;;;;;6.54;100.00;100072.28;4930786;29;21215;-81
2023/12/31 02:27:56;;;;;;;3.30;1.88;;;;;;;6.52;100.00;100068.81;4909759;29;20058;-81
2023/12/31 02:30:25;;;;;;;1.88;1.25;;;;;;;6.53;100.00;100068.81;4914208;29;20565;-82
2023/12/31 02:32:51;;;;;;;8.40;3.10;;;;;;;6.50;100.00;100065.34;4929460;29;20063;-83
2023/12/31 02:35:20;;;;;;;4.82;1.30;;;;;;;6.50;100.00;100058.41;4913251;29;20047;-83
2023/12/31 02:37:46;;;;;;;2.30;1.38;;;;;;;6.50;100.00;100049.75;4929077;29;20055;-82
2023/12/31 02:40:13;;;;;;;3.35;1.63;;;;;;;6.49;100.00;100055.81;4928607;29;20055;-83
2023/12/31 02:42:39;;;;;;;8.95;1.90;;;;;;;6.49;100.00;100056.69;4915833;29;20056;-82
2023/12/31 02:45:06;;;;;;;2.28;1.50;;;;;;;6.49;100.00;100046.28;4913688;29;20208;-83
2023/12/31 02:47:33;;;;;;;3.08;1.25;;;;;;;6.49;100.00;100041.06;4926402;29;20051;-82
2023/12/31 02:49:59;;;;;;;4.93;1.23;;;;;;;6.50;100.00;100041.97;4917125;29;20063;-82
2023/12/31 02:52:26;;;;;;;5.00;1.88;;;;;;;6.48;100.00;100025.47;4922965;29;20046;-82
2023/12/31 02:54:52;;;;;;;1.45;1.25;;;;;;;6.43;100.00;100028.09;4909310;29;20571;-81
2023/12/31 02:57:19;;;;;;;4.43;1.20;;;;;;;6.39;100.00;100014.25;4925696;29;20130;-81
2023/12/31 02:59:46;;;;;;;3.97;1.52;;;;;;;6.39;100.00;100014.25;4914433;29;20431;-82
2023/12/31 03:02:12;;;;;;;7.03;1.20;;;;;;;6.43;100.00;100009.91;4910746;29;20044;-82
2023/12/31 03:04:42;;;;;;;2.60;0.90;;;;;;;6.49;100.00;100001.22;4915385;29;20078;-83
2023/12/31 03:07:08;;;;;;;1.95;1.20;;;;;;;6.49;100.00;100009.03;4912392;29;20055;-82
2023/12/31 03:09:35;;;;;;;3.85;1.40;;;;;;;6.47;100.00;100003.81;4922066;29;20054;-81
2023/12/31 03:12:01;;;;;;;5.78;2.03;;;;;;;6.48;100.00;99999.47;4908713;29;20051;-82
2023/12/31 03:14:28;;;;;;;7.93;1.48;;;;;;;6.53;100.00;99997.72;4914897;29;20556;-82
2023/12/31 03:16:54;;;;;;;4.10;1.10;;;;;;;6.55;100.00;99986.47;4914415;29;20145;-82
2023/12/31 03:19:22;;;;;;;2.17;1.10;;;;;;;6.56;100.00;99982.16;4938818;29;20066;-81
2023/12/31 03:21:49;;;;;;;2.53;1.50;;;;;;;6.56;100.00;99974.34;4930625;29;20047;-81
2023/12/31 03:24:17;;;;;;;6.25;1.55;;;;;;;6.57;100.00;99976.94;4927954;29;20086;-82
2023/12/31 03:26:43;;;;;;;1.15;0.93;;;;;;;6.56;100.00;99977.78;4927620;29;20050;-82
2023/12/31 03:29:12;;;;;;;4.80;1.50;;;;;;;6.61;100.00;99970.84;4930161;29;20047;-81
2023/12/31 03:31:38;;;;;;;1.77;1.58;;;;;;;6.69;100.00;99967.31;4911346;29;20396;-81
2023/12/31 03:34:06;;;;;;;1.75;1.33;;;;;;;6.75;100.00;99967.31;4931559;29;20063;-83
2023/12/31 03:36:35;;;;;;;4.90;1.52;;;;;;;6.73;100.00;99964.72;4941115;29;20576;-82
2023/12/31 03:39:02;;;;;;;3.15;1.38;;;;;;;6.65;100.00;99956.09;4940468;29;20345;-83
2023/12/31 03:41:29;;;;;;;1.10;1.00;;;;;;;6.66;100.00;99954.34;4909718;29;20113;-82
2023/12/31 03:43:55;;;;;;;3.35;1.48;;;;;;;6.67;100.00;99941.34;4928730;29;20052;-82
2023/12/31 03:46:22;;;;;;;2.85;1.27;;;;;;;6.68;100.00;99939.63;4925712;29;20109;-82
2023/12/31 03:48:48;;;;;;;2.88;0.90;;;;;;;6.71;100.00;99926.59;4928652;29;20077;-83
2023/12/31 03:51:15;;;;;;;0.82;0.82;;;;;;;6.72;100.00;99933.53;4909380;29;20050;-83
2023/12/31 03:53:42;;;;;;;4.63;1.23;;;;;;;6.74;100.00;99926.56;4914928;29;20062;-81
2023/12/31 03:56:14;;;;;;;4.03;1.23;;;;;;;6.78;100.00;99928.28;4922794;29;20075;-82
2023/12/31 03:58:40;;;;;;;3.53;0.98;;;;;;;6.76;100.00;99925.69;4928658;29;20047;-82
2023/12/31 04:01:07;;;;;;;7.15;1.23;;;;;;;6.73;100.00;99914.44;4913854;29;20055;-81
2023/12/31 04:03:36;;;;;;;2.92;0.70;;;;;;;6.75;100.00;99902.28;4918513;29;20150;-82
2023/12/31 04:06:03;;;;;;;1.92;1.10;;;;;;;6.72;100.00;99892.75;4912468;29;20406;-82
2023/12/31 04:08:29;;;;;;;1.40;0.70;;;;;;;6.74;100.00;99891.03;4910053;29;20055;-82
2023/12/31 04:10:56;;;;;;;1.73;1.00;;;;;;;6.72;100.00;99877.16;4928552;29;20051;-82
2023/12/31 04:13:22;;;;;;;1.98;0.93;;;;;;;6.72;100.00;99877.16;4917416;29;20138;-81
2023/12/31 04:15:49;;;;;;;1.08;0.98;;;;;;;6.67;100.00;99867.66;4927337;29;20051;-82
2023/12/31 04:18:16;;;;;;;1.10;0.90;;;;;;;6.61;100.00;99861.63;4929163;29;20130;-84
2023/12/31 04:20:43;;;;;;;5.07;1.10;;;;;;;6.53;100.00;99854.72;4913441;29;20623;-82
2023/12/31 04:23:10;;;;;;;2.67;1.58;;;;;;;6.49;100.00;99855.63;4917018;29;20469;-83
2023/12/31 04:25:36;;;;;;;2.70;1.08;;;;;;;6.42;100.00;99844.38;4909977;29;20051;-83
2023/12/31 04:28:03;;;;;;;2.85;1.15;;;;;;;6.36;100.00;99837.50;4930947;29;20039;-81
2023/12/31 04:30:29;;;;;;;1.10;1.00;;;;;;;6.35;100.00;99840.06;4913492;29;20135;-81
2023/12/31 04:32:56;;;;;;;2.65;1.10;;;;;;;6.27;100.00;99840.09;4912164;29;20403;-82
2023/12/31 04:35:22;;;;;;;3.25;1.42;;;;;;;6.27;100.00;99829.72;4913940;29;20401;-82
2023/12/31 04:37:49;;;;;;;5.32;1.52;;;;;;;6.28;100.00;99839.25;4926655;29;20051;-82
2023/12/31 04:40:21;;;;;;;2.85;2.22;;;;;;;6.31;100.00;99830.56;4907098;29;20055;-82
2023/12/31 04:42:47;;;;;;;3.42;1.38;;;;;;;6.37;100.00;99830.53;4913214;29;20134;-81
2023/12/31 04:45:20;;;;;;;3.00;1.50;;;;;;;6.40;100.00;99831.41;4914822;29;20114;-81
2023/12/31 04:47:48;;;;;;;5.75;1.73;;;;;;;6.43;100.00;99826.16;4914011;29;20107;-81
2023/12/31 04:50:15;;;;;;;4.78;2.20;;;;;;;6.48;100.00;99828.75;4922921;29;20051;-82
2023/12/31 04:52:42;;;;;;;3.08;1.92;;;;;;;6.57;100.00;99820.03;4914455;29;20083;-83
2023/12/31 04:55:08;;;;;;;2.08;1.55;;;;;;;6.58;100.00;99820.03;4920271;29;20513;-83
2023/12/31 04:57:35;;;;;;;7.60;1.60;;;;;;;6.59;100.00;99820.88;4927620;29;20130;-81
2023/12/31 05:00:02;;;;;;;2.92;1.77;;;;;;;6.60;100.00;99817.41;4926117;29;20147;-81
2023/12/31 05:02:29;;;;;;;5.22;2.53;;;;;;;6.57;100.00;99815.69;4912478;29;20043;-81
2023/12/31 05:04:55;;;;;;;4.38;1.35;;;;;;;6.58;100.00;99806.16;4942519;29;20444;-81
2023/12/31 05:07:22;;;;;;;2.28;1.52;;;;;;;6.55;100.00;99809.63;4920696;29;20095;-82
2023/12/31 05:09:48;;;;;;;2.58;1.42;;;;;;;6.56;100.00;99805.31;4906534;29;20043;-81
2023/12/31 05:12:18;;;;;;;1.90;1.63;;;;;;;6.54;100.00;99799.25;4917556;29;20047;-81
2023/12/31 05:14:44;;;;;;;2.40;1.85;;;;;;;6.51;100.00;99800.13;4912801;29;20051;-81
2023/12/31 05:17:11;;;;;;;10.02;1.92;;;;;;;6.49;100.00;99795.81;4927116;29;20138;-81
2023/12/31 05:19:38;;;;;;;1.35;1.25;;;;;;;6.47;100.00;99793.22;4914415;29;20499;-81
2023/12/31 05:22:05;;;;;;;2.40;1.23;;;;;;;6.48;100.00;99792.38;4941094;29;20040;-82
2023/12/31 05:24:31;;;;;;;4.05;1.70;;;;;;;6.46;100.00;99779.34;4941843;29;20047;-83
2023/12/31 05:26:58;;;;;;;2.10;1.38;;;;;;;6.47;100.00;99788.03;4923227;29;20051;-81
2023/12/31 05:29:24;;;;;;;1.67;1.42;;;;;;;6.48;100.00;99781.06;4906071;29;20047;-82
2023/12/31 05:31:54;;;;;;;1.75;0.90;;;;;;;6.49;100.00;99768.06;4913015;29;20062;-83
2023/12/31 05:34:20;;;;;;;3.55;1.85;;;;;;;6.52;100.00;99767.19;4928318;29;20054;-83
2023/12/31 05:36:47;;;;;;;1.63;1.10;;;;;;;6.51;100.00;99770.69;4928427;29;20063;-83
2023/12/31 05:39:14;;;;;;;3.25;1.13;;;;;;;6.50;100.00;99761.16;4920324;29;20066;-83
2023/12/31 05:41:41;;;;;;;8.00;2.10;;;;;;;6.51;100.00;99763.72;4940551;28;20524;-83
2023/12/31 05:44:07;;;;;;;1.13;1.00;;;;;;;6.52;100.00;99757.66;4930397;29;20043;-83
2023/12/31 05:46:33;;;;;;;1.83;1.35;;;;;;;6.54;100.00;99752.44;4933524;29;20044;-82
2023/12/31 05:49:00;;;;;;;2.15;1.08;;;;;;;6.53;100.00;99743.78;4917992;29;20051;-82
2023/12/31 05:51:26;;;;;;;1.73;0.93;;;;;;;6.57;100.00;99745.50;4918636;29;20047;-82
2023/12/31 05:53:53;;;;;;;1.92;1.13;;;;;;;6.56;100.00;99746.38;4922123;29;20083;-81
2023/12/31 05:56:19;;;;;;;2.50;1.13;;;;;;;6.58;100.00;99739.44;4913628;29;20051;-83
2023/12/31 05:58:48;;;;;;;1.10;0.60;;;;;;;6.58;100.00;99743.75;4930115;29;20067;-83
2023/12/31 06:01:14;;;;;;;4.95;1.30;;;;;;;6.61;100.00;99738.53;4926523;29;20058;-82
2023/12/31 06:03:41;;;;;;;3.25;1.02;;;;;;;6.66;100.00;99735.88;4920858;29;20051;-82
2023/12/31 06:06:08;;;;;;;1.33;1.05;;;;;;;6.65;100.00;99740.25;4930931;29;20051;-82
2023/12/31 06:08:34;;;;;;;8.68;1.25;;;;;;;6.64;100.00;99722.91;4945930;29;20506;-82
2023/12/31 06:11:01;;;;;;;1.33;0.90;;;;;;;6.64;100.00;99719.44;4932956;29;20047;-82
2023/12/31 06:13:28;;;;;;;4.15;1.90;;;;;;;6.64;100.00;99717.69;4943986;28;20103;-83
2023/12/31 06:15:54;;;;;;;4.32;0.82;;;;;;;6.66;100.00;99713.34;4934225;29;20043;-83
2023/12/31 06:18:21;;;;;;;3.97;1.08;;;;;;;6.65;100.00;99710.75;4933596;29;20054;-83
2023/12/31 06:20:47;;;;;;;6.50;1.20;;;;;;;6.67;100.00;99709.00;4923332;29;20398;-83
2023/12/31 06:23:16;;;;;;;2.17;1.08;;;;;;;6.66;100.00;99705.53;4922441;29;20138;-84
2023/12/31 06:25:42;;;;;;;2.55;1.25;;;;;;;6.69;100.00;99699.44;4924219;29;20065;-83
2023/12/31 06:28:09;;;;;;;9.35;1.70;;;;;;;6.76;100.00;99711.53;4925580;29;20044;-83
2023/12/31 06:30:35;;;;;;;1.48;1.10;;;;;;;6.78;100.00;99705.44;4931912;29;20119;-83
2023/12/31 06:33:02;;;;;;;5.88;1.48;;;;;;;6.83;100.00;99699.31;4922643;29;20428;-83
2023/12/31 06:35:28;;;;;;;2.17;1.25;;;;;;;6.79;100.00;99690.69;4938067;29;20039;-83
2023/12/31 06:37:55;;;;;;;1.55;1.00;;;;;;;6.85;100.00;99692.38;4925271;29;20058;-83
2023/12/31 06:40:22;;;;;;;2.58;0.90;;;;;;;6.90;100.00;99695.81;4936558;29;20527;-83
2023/12/31 06:42:48;;;;;;;3.10;1.85;;;;;;;6.94;100.00;99697.50;4931235;29;20055;-83
2023/12/31 06:45:15;;;;;;;2.38;0.90;;;;;;;6.99;100.00;99694.84;4933437;29;20051;-83
2023/12/31 06:47:41;;;;;;;2.55;1.08;;;;;;;7.01;100.00;99693.09;4935843;29;20054;-83
2023/12/31 06:50:10;;;;;;;3.03;0.93;;;;;;;7.03;100.00;99683.53;4936564;29;20469;-83
2023/12/31 06:52:37;;;;;;;1.73;0.90;;;;;;;7.05;100.00;99679.16;4936029;29;20091;-84
2023/12/31 06:55:03;;;;;;;1.13;1.02;;;;;;;7.08;100.00;99674.81;4939561;29;20484;-84
2023/12/31 06:57:30;;;;;;;1.50;0.93;;;;;;;7.11;100.00;99669.56;4918002;29;20050;-84
2023/12/31 06:59:59;;;;;;;1.65;1.05;;;;;;;7.18;100.00;99670.34;4936850;29;20070;-83
2023/12/31 07:02:26;;;;;;;3.80;0.90;;;;;;;7.20;100.00;99668.59;4926028;29;20045;-83
2023/12/31 07:04:53;;;;;;;2.55;0.80;;;;;;;7.18;100.00;99667.75;4922082;29;20587;-84
2023/12/31 07:07:22;;;;;;;3.45;1.27;;;;;;;7.20;100.00;99666.00;4912822;29;20063;-83
2023/12/31 07:09:49;;;;;;;1.05;0.60;;;;;;;7.22;100.00;99672.06;4936364;29;20039;-82
2023/12/31 07:12:15;;;;;;;2.25;0.80;;;;;;;7.22;100.00;99659.06;4929872;29;20055;-83
2023/12/31 07:14:42;;;;;;;2.83;1.10;;;;;;;7.28;100.00;99651.16;4941683;29;20055;-83
2023/12/31 07:17:08;;;;;;;1.08;0.73;;;;;;;7.27;100.00;99646.84;4937001;29;20052;-83
2023/12/31 07:19:35;;;;;;;2.85;0.70;;;;;;;7.29;100.00;99657.22;4917361;29;20138;-84
2023/12/31 07:22:01;;;;;;;2.88;0.65;;;;;;;7.27;100.00;99658.97;4914006;29;20102;-83
2023/12/31 07:24:28;;;;;;;0.70;0.70;;;;;;;7.31;100.00;99642.44;4940340;29;20114;-84
2023/12/31 07:26:54;;;;;;;3.30;1.05;;;;;;;7.30;100.00;99643.34;4918899;29;20047;-83
2023/12/31 07:29:23;;;;;;;2.97;1.05;;;;;;;7.30;100.00;99648.56;4915481;29;20083;-83
2023/12/31 07:31:50;;;;;;;1.88;1.30;;;;;;;7.29;100.00;99652.88;4921031;29;20071;-83
2023/12/31 07:34:16;;;;;;;2.60;1.02;;;;;;;7.32;100.00;99645.91;4920957;29;20155;-83
2023/12/31 07:36:43;;;;;;;1.58;1.08;;;;;;;7.34;100.00;99646.75;4935810;29;20100;-84
2023/12/31 07:39:10;;;;;;;5.28;0.88;;;;;;;7.33;100.00;99635.47;4931516;29;20058;-83
2023/12/31 07:41:36;;;;;;;1.73;0.88;;;;;;;7.33;100.00;99630.28;4920681;29;20086;-83
2023/12/31 07:44:03;;;;;;;4.43;0.75;;;;;;;7.28;100.00;99630.31;4937475;29;20446;-84
2023/12/31 07:46:30;;;;;;;2.75;1.00;;;;;;;7.26;100.00;99626.88;4920496;29;20089;-83
2023/12/31 07:48:56;;;;;;;1.83;1.33;;;;;;;7.29;100.00;99629.44;4932013;29;20083;-86
2023/12/31 07:51:23;;;;;;;3.58;1.00;;;;;;;7.29;100.00;99626.00;4913333;29;20094;-84
2023/12/31 07:53:52;;;;;;;2.90;1.00;;;;;;;7.31;100.00;99626.81;4920027;29;20044;-83
2023/12/31 07:56:19;;;;;;;4.88;1.30;;;;;;;7.31;100.00;99620.75;4917954;29;20047;-83
2023/12/31 07:58:46;;;;;;;2.05;0.88;;;;;;;7.31;100.00;99611.19;4918541;29;20055;-83
2023/12/31 08:01:12;;;;;;;1.88;0.75;;;;;;;7.26;100.00;99611.28;4918627;29;20051;-84
2023/12/31 08:03:39;;;;;;;4.85;1.00;;;;;;;7.29;100.00;99610.38;4923536;29;20058;-82
2023/12/31 08:06:06;;;;;;;0.90;0.70;;;;;;;7.29;100.00;99606.00;4945797;29;20039;-83
2023/12/31 08:08:34;;;;;;;0.98;0.70;;;;;;;7.31;100.00;99611.19;4932342;29;20051;-83
2023/12/31 08:11:00;;;;;;;1.02;0.65;;;;;;;7.36;100.00;99603.34;4935672;29;20094;-84
2023/12/31 08:13:27;;;;;;;2.20;0.60;;;;;;;7.39;100.00;99603.28;4913423;29;20042;-84
2023/12/31 08:15:54;;;;;;;1.83;1.30;;;;;;;7.41;100.00;99601.53;4933661;29;20066;-84
2023/12/31 08:18:25;;;;;;;2.47;1.00;;;;;;;7.36;100.00;99595.53;4931998;29;20513;-84
2023/12/31 08:20:51;;;;;;;1.42;0.85;;;;;;;7.40;100.00;99585.03;4936041;29;20055;-82
2023/12/31 08:23:19;;;;;;;2.85;1.10;;;;;;;7.43;100.00;99585.03;4921352;29;20043;-83
2023/12/31 08:25:45;;;;;;;1.73;1.05;;;;;;;7.43;100.00;99585.03;4931301;29;20054;-82
2023/12/31 08:28:14;;;;;;;0.65;0.63;;;;;;;7.42;100.00;99582.44;4924419;29;20134;-84
2023/12/31 08:30:41;;;;;;;3.95;1.20;;;;;;;7.42;100.00;99566.81;4918032;29;20058;-83
2023/12/31 08:33:07;;;;;;;2.72;1.25;;;;;;;7.49;100.00;99573.66;4915208;29;20047;-83
2023/12/31 08:35:34;;;;;;;1.13;0.98;;;;;;;7.53;100.00;99564.06;4909711;29;20762;-83
2023/12/31 08:38:00;;;;;;;1.30;0.68;;;;;;;7.53;100.00;99559.69;4918201;29;20053;-83
2023/12/31 08:40:27;;;;;;;0.70;0.70;;;;;;;7.53;100.00;99551.03;4930968;29;20517;-84
2023/12/31 08:42:53;;;;;;;0.75;0.75;;;;;;;7.55;100.00;99547.53;4933418;29;20050;-83
2023/12/31 08:45:20;;;;;;;1.10;0.57;;;;;;;7.55;100.00;99544.94;4920677;29;20137;-84
2023/12/31 08:47:46;;;;;;;0.80;0.77;;;;;;;7.61;100.00;99539.63;4917894;29;20051;-84
2023/12/31 08:50:14;;;;;;;2.17;1.02;;;;;;;7.62;100.00;99532.66;4929874;29;20142;-83
2023/12/31 08:52:46;;;;;;;2.30;2.15;;;;;;;7.58;100.00;99537.06;4925864;29;20051;-82
2023/12/31 08:55:14;;;;;;;1.00;0.77;;;;;;;7.64;100.00;99532.63;4945972;29;20038;-81
2023/12/31 08:57:47;;;;;;;2.28;1.10;;;;;;;7.64;100.00;99530.91;4950061;29;20581;-83
2023/12/31 09:00:16;;;;;;;0.60;0.60;;;;;;;7.63;100.00;99523.97;4929680;29;20392;-83
2023/12/31 09:02:43;;;;;;;1.17;1.05;;;;;;;7.65;100.00;99524.81;4955340;29;20047;-81
2023/12/31 09:05:10;;;;;;;1.48;0.50;;;;;;;7.66;100.00;99520.47;4930826;29;20047;-81
2023/12/31 09:07:36;;;;;;;7.03;1.23;;;;;;;7.71;100.00;99513.44;4937401;29;20039;-82
2023/12/31 09:10:07;;;;;;;0.75;0.75;;;;;;;7.70;100.00;99509.97;4932951;29;20082;-80
2023/12/31 09:12:36;;;;;;;2.28;1.10;;;;;;;7.70;100.00;99517.78;4945923;29;20055;-81
2023/12/31 09:15:04;;;;;;;0.98;0.90;;;;;;;7.73;100.00;99506.44;4934576;29;20054;-81
2023/12/31 09:17:32;;;;;;;3.53;0.93;;;;;;;7.68;100.00;99500.44;4925248;29;20051;-81
2023/12/31 09:20:05;;;;;;;1.98;0.77;;;;;;;7.75;100.00;99499.47;4943709;29;20058;-82
2023/12/31 09:22:33;;;;;;;2.60;1.00;;;;;;;7.70;100.00;99490.88;4929702;29;20050;-82
2023/12/31 09:25:01;;;;;;;2.65;1.10;;;;;;;7.78;100.00;99484.66;4943454;29;20058;-83
2023/12/31 09:27:28;;;;;;;1.40;1.25;;;;;;;7.81;100.00;99478.56;4958958;29;20059;-81
2023/12/31 09:29:55;;;;;;;4.78;1.52;;;;;;;7.75;100.00;99482.09;4932066;29;20074;-81
2023/12/31 09:32:23;;;;;;;2.78;1.00;;;;;;;7.80;100.00;99482.03;4942987;29;20084;-82
2023/12/31 09:34:49;;;;;;;4.32;1.40;;;;;;;7.87;100.00;99474.97;4931182;29;20048;-83
2023/12/31 09:37:19;;;;;;;7.95;1.38;;;;;;;7.89;100.00;99484.47;4946706;29;20098;-81
2023/12/31 09:39:49;;;;;;;1.95;1.08;;;;;;;7.89;100.00;99483.63;4961760;29;20198;-81
2023/12/31 09:42:38;;;;;;;4.27;2.87;;;;;;;7.91;100.00;99480.13;4948447;29;20107;-82
2023/12/31 09:45:09;;;;;;;1.50;1.38;;;;;;;7.95;100.00;99476.56;4936730;29;20572;-82
2023/12/31 09:47:37;;;;;;;3.58;2.17;;;;;;;8.01;100.00;99483.41;4951178;29;20027;-83
2023/12/31 09:50:07;;;;;;;3.70;1.15;;;;;;;8.01;100.00;99470.38;4948621;29;20065;-82
2023/12/31 09:52:34;;;;;;;3.83;1.40;;;;;;;8.05;100.00;99482.47;4919980;29;20805;-81
2023/12/31 09:55:04;;;;;;;1.50;0.88;;;;;;;8.00;100.00;99492.09;4942346;29;20047;-81
2023/12/31 09:57:33;;;;;;;1.00;1.00;;;;;;;8.03;100.00;99491.19;4958349;29;20043;-82
2023/12/31 10:00:04;;;;;;;2.70;0.98;;;;;;;8.05;100.00;99484.22;4928658;29;20146;-82
2023/12/31 10:02:31;;;;;;;1.75;1.00;;;;;;;8.06;100.00;99485.94;4945942;29;20090;-81
2023/12/31 10:04:58;;;;;;;1.63;1.20;;;;;;;8.01;100.00;99474.75;4926883;29;20055;-83
2023/12/31 10:07:25;;;;;;;1.23;1.13;;;;;;;8.09;100.00;99472.84;4939535;29;20062;-82
2023/12/31 10:09:55;;;;;;;1.58;1.30;;;;;;;8.12;100.00;99467.56;4929612;29;20043;-82
2023/12/31 10:12:21;;;;;;;2.97;1.08;;;;;;;8.07;100.00;99458.97;4947553;29;20047;-82
2023/12/31 10:14:49;;;;;;;0.95;0.63;;;;;;;8.07;100.00;99436.41;4942785;29;20120;-81
2023/12/31 10:17:16;;;;;;;2.13;1.23;;;;;;;8.15;100.00;99438.88;4944126;29;20333;-82
2023/12/31 10:19:48;;;;;;;3.10;1.23;;;;;;;8.11;100.00;99417.19;4944591;29;20051;-81
2023/12/31 10:22:19;;;;;;;1.42;1.10;;;;;;;8.15;100.00;99425.84;4923240;29;20054;-81
2023/12/31 10:24:48;;;;;;;1.55;1.38;;;;;;;8.20;100.00;99420.50;4927202;29;20043;-81
2023/12/31 10:27:18;;;;;;;1.95;1.00;;;;;;;8.23;99.85;99431.75;4939860;29;20084;-82
2023/12/31 10:29:45;;;;;;;0.95;0.88;;;;;;;8.18;98.93;99430.97;4944149;29;20078;-82
2023/12/31 10:32:11;;;;;;;1.48;1.10;;;;;;;8.25;98.56;99418.69;4948912;29;20540;-81
2023/12/31 10:34:40;;;;;;;1.30;1.20;;;;;;;8.26;97.94;99423.00;4929220;29;20504;-81
2023/12/31 10:37:07;;;;;;;3.83;1.38;;;;;;;8.26;97.84;99416.03;4943227;29;20047;-81
2023/12/31 10:39:36;;;;;;;1.60;1.48;;;;;;;8.31;97.54;99418.56;4926956;29;20053;-82
2023/12/31 10:42:05;;;;;;;1.48;1.17;;;;;;;8.35;97.29;99401.13;4931522;29;20123;-82
2023/12/31 10:44:37;;;;;;;2.28;1.70;;;;;;;8.39;96.41;99395.78;4927773;29;20064;-81
2023/12/31 10:47:06;;;;;;;1.60;1.38;;;;;;;8.42;95.71;99384.44;4961102;29;20059;-81
2023/12/31 10:49:34;;;;;;;1.67;1.20;;;;;;;8.53;95.64;99382.50;4943957;29;20032;-80
2023/12/31 10:52:08;;;;;;;2.53;1.42;;;;;;;8.47;95.36;99371.34;4932875;29;20059;-82
2023/12/31 10:54:51;;;;;;;1.30;1.20;;;;;;;8.53;95.08;99374.69;4930298;29;20564;-82
2023/12/31 10:57:21;;;;;;;1.90;1.30;;;;;;;8.53;94.75;99366.88;4942121;29;20528;-82
2023/12/31 10:59:53;;;;;;;2.15;1.05;;;;;;;8.48;94.68;99355.66;4947842;29;20082;-82
2023/12/31 11:02:23;;;;;;;1.92;1.73;;;;;;;8.62;94.36;99371.03;4934373;29;20462;-81
2023/12/31 11:04:52;;;;;;;2.33;1.70;;;;;;;8.58;93.46;99365.00;4946047;29;20464;-82
2023/12/31 11:07:20;;;;;;;1.85;1.05;;;;;;;8.70;93.73;99365.66;4923633;29;20058;-82
2023/12/31 11:09:49;;;;;;;1.35;1.10;;;;;;;8.79;92.03;99365.44;4946473;29;20039;-82
2023/12/31 11:12:18;;;;;;;1.30;1.20;;;;;;;8.90;91.28;99347.81;4954645;29;20040;-84
2023/12/31 11:14:57;;;;;;;1.10;1.10;;;;;;;8.86;91.11;99353.09;4938035;29;20480;-83
2023/12/31 11:17:50;;;;;;;1.55;1.20;;;;;;;8.99;90.52;99331.03;4951526;29;20043;-84
2023/12/31 11:20:59;;;;;;;4.90;1.40;;;;;;;8.88;90.07;99341.75;4938783;29;20468;-84
2023/12/31 11:23:48;;;;;;;1.08;1.08;;;;;;;9.10;89.58;99322.97;4940273;29;20052;-83
2023/12/31 11:26:15;;;;;;;2.90;1.42;;;;;;;9.07;89.36;99321.28;4928641;29;20110;-83
2023/12/31 11:28:49;;;;;;;2.08;1.23;;;;;;;9.18;88.80;99335.84;4930924;29;20058;-84
2023/12/31 11:31:16;;;;;;;0.85;0.85;;;;;;;9.27;88.35;99319.94;4923996;29;20114;-83
2023/12/31 11:33:42;;;;;;;2.85;1.42;;;;;;;9.22;88.07;99316.59;4941935;29;20043;-83